Terminal Aerodrome Forecast
Issued by NWS Sioux Falls, SD

Home | Current Version | Previous Version | Text Only | Print | Product List | Glossary On
Versions: 1 2 3 4 5 6 7 8 9 10 11 12 13 14 15 16
000
FTUS43 KFSD 290533
TAFHON
TAF
KHON 290533Z 2906/3006 20018G30KT P6SM BKN080
     FM290800 28012G23KT P6SM SCT050
     FM291000 31022G37KT P6SM BKN040
     FM291500 32028G38KT P6SM SCT040
     FM292200 32020G27KT P6SM SKC
     FM300000 31010KT P6SM SKC
     FM300300 23005KT P6SM SKC=

USA.gov is the U.S. government's official web portal to all federal, state and local government web resources and services.